createdAt,value
2019-04-30T00:01:18.888Z,99.20
2019-04-30T00:04:06.365Z,99.10
2019-04-30T00:06:39.515Z,99.10
2019-04-30T00:09:09.853Z,99.10
2019-04-30T00:11:37.752Z,99.00
2019-04-30T00:14:06.892Z,99.10
2019-04-30T00:16:39.791Z,99.20
2019-04-30T00:19:10.641Z,99.20
2019-04-30T00:21:37.668Z,99.30
2019-04-30T00:24:10.252Z,99.30
2019-04-30T00:26:39.846Z,99.30
2019-04-30T00:29:08.317Z,99.20
2019-04-30T00:31:37.498Z,99.30
2019-04-30T00:34:06.535Z,99.10
2019-04-30T00:36:37.393Z,99.10
2019-04-30T00:39:12.931Z,99.10
2019-04-30T00:41:39.915Z,99.00
2019-04-30T00:44:08.383Z,98.80
2019-04-30T00:46:37.669Z,98.70
2019-04-30T00:49:09.787Z,98.70
2019-04-30T00:51:37.257Z,98.70
2019-04-30T00:54:06.306Z,98.60
2019-04-30T00:56:35.591Z,98.50
2019-04-30T00:59:07.013Z,98.50
2019-04-30T01:01:52.405Z,98.60
2019-04-30T01:04:40.688Z,98.70
2019-04-30T01:07:10.121Z,98.80
2019-04-30T01:09:39.667Z,98.90
2019-04-30T01:12:09.908Z,98.90
2019-04-30T01:14:39.955Z,99.00
2019-04-30T01:17:12.252Z,99.10
2019-04-30T01:19:40.033Z,99.10
2019-04-30T01:22:09.144Z,99.20
2019-04-30T01:24:38.778Z,99.60
2019-04-30T01:27:10.500Z,99.90
2019-04-30T01:29:44.183Z,99.90
2019-04-30T01:32:10.402Z,99.90
2019-04-30T01:34:44.131Z,99.80
2019-04-30T01:37:11.363Z,99.90
2019-04-30T01:39:40.281Z,99.90
2019-04-30T01:42:11.334Z,99.90
2019-04-30T01:44:43.496Z,99.90
2019-04-30T01:47:11.307Z,99.90
2019-04-30T01:49:42.842Z,99.90
2019-04-30T01:52:11.510Z,99.90
2019-04-30T01:54:40.622Z,99.90
2019-04-30T01:57:19.319Z,99.90
2019-04-30T02:00:06.286Z,99.90
2019-04-30T02:02:37.350Z,99.90
2019-04-30T02:05:08.816Z,99.90
2019-04-30T02:07:38.801Z,99.90
2019-04-30T02:10:08.832Z,99.90
2019-04-30T02:12:39.307Z,99.90
2019-04-30T02:15:09.517Z,99.90
2019-04-30T02:17:38.894Z,99.90
2019-04-30T02:20:08.919Z,99.90
2019-04-30T02:22:38.973Z,99.90
2019-04-30T02:25:09.662Z,99.90
2019-04-30T02:27:39.019Z,99.90
2019-04-30T02:30:11.172Z,99.90
2019-04-30T02:32:39.727Z,99.90
2019-04-30T02:35:28.850Z,99.90
2019-04-30T02:38:20.235Z,99.90
2019-04-30T02:40:49.883Z,99.90
2019-04-30T02:43:21.272Z,99.90
2019-04-30T02:45:52.971Z,99.90
2019-04-30T02:48:24.302Z,99.90
2019-04-30T02:50:55.322Z,99.90
2019-04-30T02:53:53.618Z,99.90
2019-04-30T02:56:26.585Z,99.90
2019-04-30T02:58:54.837Z,99.90
2019-04-30T03:01:23.966Z,99.90
2019-04-30T03:03:52.884Z,99.90
2019-04-30T03:06:23.723Z,99.90
2019-04-30T03:08:52.726Z,99.90
2019-04-30T03:11:21.655Z,99.90
2019-04-30T03:13:51.026Z,99.90
2019-04-30T03:16:24.295Z,99.90
2019-04-30T03:19:09.258Z,99.90
2019-04-30T03:21:44.562Z,99.90
2019-04-30T03:24:13.887Z,99.90
2019-04-30T03:26:42.882Z,99.90
2019-04-30T03:29:11.881Z,99.90
2019-04-30T03:31:43.960Z,99.90
2019-04-30T03:34:17.547Z,99.90
2019-04-30T03:36:42.324Z,99.90
2019-04-30T03:39:11.507Z,99.90
2019-04-30T03:41:41.587Z,99.90
2019-04-30T03:44:21.641Z,99.90
2019-04-30T03:46:41.926Z,99.90
2019-04-30T03:49:13.365Z,99.90
2019-04-30T03:51:41.550Z,99.90
2019-04-30T03:54:10.630Z,99.90
2019-04-30T03:56:40.588Z,99.90
2019-04-30T03:59:10.774Z,99.90
2019-04-30T04:02:05.297Z,99.90
2019-04-30T04:04:42.392Z,99.90
2019-04-30T04:07:29.821Z,99.90
2019-04-30T04:10:10.093Z,99.90
2019-04-30T04:12:39.517Z,99.90
2019-04-30T04:15:10.555Z,99.90
2019-04-30T04:17:40.221Z,99.90
2019-04-30T04:20:10.713Z,99.90
2019-04-30T04:22:40.498Z,99.90
2019-04-30T04:25:13.309Z,99.90
2019-04-30T04:27:41.136Z,99.90
2019-04-30T04:30:10.869Z,99.90
2019-04-30T04:32:40.876Z,99.90
2019-04-30T04:35:12.628Z,99.90
2019-04-30T04:37:44.532Z,99.90
2019-04-30T04:40:14.129Z,99.90
2019-04-30T04:42:43.276Z,99.90
2019-04-30T04:45:12.893Z,99.90
2019-04-30T04:47:42.010Z,99.90
2019-04-30T04:50:11.044Z,99.90
2019-04-30T04:52:40.220Z,99.90
2019-04-30T04:55:10.260Z,99.90
2019-04-30T04:57:40.225Z,99.90
2019-04-30T05:00:10.660Z,99.90
2019-04-30T05:02:49.581Z,99.90
2019-04-30T05:05:19.432Z,99.90
2019-04-30T05:07:48.806Z,99.90
2019-04-30T05:10:19.266Z,99.90
2019-04-30T05:12:52.060Z,99.90
2019-04-30T05:15:21.608Z,99.90
2019-04-30T05:17:50.879Z,99.90
2019-04-30T05:20:19.932Z,99.90
2019-04-30T05:22:49.026Z,99.90
2019-04-30T05:25:18.808Z,99.90
2019-04-30T05:27:48.803Z,99.90
2019-04-30T05:30:19.830Z,99.90
2019-04-30T05:32:50.699Z,99.90
2019-04-30T05:35:20.018Z,99.90
2019-04-30T05:37:49.566Z,99.90
2019-04-30T05:40:19.049Z,99.90
2019-04-30T05:43:24.943Z,99.90
2019-04-30T05:45:54.525Z,99.90
2019-04-30T05:48:23.980Z,99.90
2019-04-30T05:50:53.023Z,99.90
2019-04-30T05:53:22.520Z,99.90
2019-04-30T05:55:51.575Z,99.90
2019-04-30T05:58:20.775Z,99.90
2019-04-30T06:00:50.091Z,99.90
2019-04-30T06:03:27.985Z,99.90
2019-04-30T06:05:50.363Z,99.90
2019-04-30T06:08:21.153Z,99.90
2019-04-30T06:11:15.301Z,99.90
2019-04-30T06:14:15.478Z,99.90
2019-04-30T06:17:03.253Z,99.90
2019-04-30T06:19:32.312Z,99.90
2019-04-30T06:22:07.809Z,99.90
2019-04-30T06:24:32.163Z,99.90
2019-04-30T06:27:01.341Z,99.90
2019-04-30T06:29:30.684Z,99.90
2019-04-30T06:32:00.209Z,99.90
2019-04-30T06:34:29.947Z,99.90
2019-04-30T06:36:59.609Z,99.90
2019-04-30T06:39:28.893Z,99.90
2019-04-30T06:42:06.454Z,99.90
2019-04-30T06:44:37.474Z,99.90
2019-04-30T06:47:03.901Z,99.00
2019-04-30T06:49:33.386Z,98.70
2019-04-30T06:52:02.462Z,98.80
2019-04-30T06:54:31.867Z,98.40
2019-04-30T06:57:00.878Z,98.10
2019-04-30T06:59:30.183Z,98.50
2019-04-30T07:01:59.377Z,98.50
2019-04-30T07:04:29.306Z,98.00
2019-04-30T07:06:59.021Z,98.30
2019-04-30T07:09:51.904Z,99.00
2019-04-30T07:12:27.242Z,99.20
2019-04-30T07:14:51.389Z,99.40
2019-04-30T07:17:20.359Z,98.60
2019-04-30T07:19:55.617Z,98.30
2019-04-30T07:22:35.835Z,98.20
2019-04-30T07:24:50.790Z,97.80
2019-04-30T07:27:24.017Z,98.30
2019-04-30T07:29:50.740Z,97.90
2019-04-30T07:32:19.951Z,97.80
2019-04-30T07:34:49.634Z,97.70
2019-04-30T07:37:24.219Z,97.50
2019-04-30T07:39:49.661Z,97.00
2019-04-30T07:42:19.263Z,96.60
2019-04-30T07:44:50.216Z,95.80
2019-04-30T07:47:19.800Z,95.30
2019-04-30T07:49:52.916Z,95.50
2019-04-30T07:52:21.566Z,96.20
2019-04-30T07:54:51.903Z,96.60
2019-04-30T07:57:21.106Z,96.90
2019-04-30T07:59:50.334Z,96.80
2019-04-30T08:02:20.744Z,96.80
2019-04-30T08:05:02.374Z,96.10
2019-04-30T08:07:31.496Z,94.60
2019-04-30T08:10:00.516Z,94.40
2019-04-30T08:12:34.748Z,94.50
2019-04-30T08:15:00.507Z,89.00
2019-04-30T08:17:29.620Z,76.80
2019-04-30T08:19:58.867Z,65.00
2019-04-30T08:22:29.583Z,58.80
2019-04-30T08:24:58.741Z,55.50
2019-04-30T08:27:29.639Z,52.90
2019-04-30T08:29:59.278Z,46.70
2019-04-30T08:32:29.091Z,41.40
2019-04-30T08:35:00.974Z,40.90
2019-04-30T08:37:28.902Z,40.40
2019-04-30T08:39:59.880Z,38.40
2019-04-30T08:42:33.786Z,37.70
2019-04-30T08:44:59.583Z,38.70
2019-04-30T08:47:29.092Z,39.00
2019-04-30T08:49:59.421Z,42.60
2019-04-30T08:52:30.490Z,43.40
2019-04-30T08:55:12.739Z,48.60
2019-04-30T08:57:30.421Z,51.90
2019-04-30T08:59:59.375Z,54.70
2019-04-30T09:02:28.962Z,56.50
2019-04-30T09:05:03.020Z,58.00
2019-04-30T09:07:32.175Z,59.80
2019-04-30T09:10:01.750Z,62.30
2019-04-30T09:12:31.654Z,63.60
2019-04-30T09:15:00.616Z,64.20
2019-04-30T09:17:29.750Z,62.90
2019-04-30T09:19:59.013Z,64.90
2019-04-30T09:22:29.353Z,65.70
2019-04-30T09:24:59.212Z,63.70
2019-04-30T09:27:31.628Z,62.60
2019-04-30T09:30:01.470Z,63.40
2019-04-30T09:32:32.867Z,63.20
2019-04-30T09:35:02.132Z,62.50
2019-04-30T09:37:31.245Z,62.40
2019-04-30T09:40:00.862Z,62.90
2019-04-30T09:42:29.711Z,62.90
2019-04-30T09:44:59.714Z,63.00
2019-04-30T09:47:30.381Z,62.00
2019-04-30T09:50:00.313Z,62.30
2019-04-30T09:52:30.863Z,63.60
2019-04-30T09:55:00.534Z,63.70
2019-04-30T09:57:30.021Z,63.70
2019-04-30T10:00:00.606Z,63.60
2019-04-30T10:02:32.137Z,63.50
2019-04-30T10:05:02.069Z,63.80
2019-04-30T10:07:31.597Z,62.70
2019-04-30T10:10:00.818Z,64.30
2019-04-30T10:12:29.854Z,64.50
2019-04-30T10:14:59.259Z,64.70
2019-04-30T10:17:40.142Z,63.80
2019-04-30T10:20:11.342Z,62.90
2019-04-30T10:22:40.367Z,62.10
2019-04-30T10:25:13.169Z,61.70
2019-04-30T10:27:42.851Z,60.60
2019-04-30T10:30:15.412Z,61.10
2019-04-30T10:32:45.732Z,61.30
2019-04-30T10:35:15.852Z,61.90
2019-04-30T10:37:44.955Z,63.20
2019-04-30T10:40:14.219Z,62.90
2019-04-30T10:42:43.356Z,63.20
2019-04-30T10:45:12.539Z,63.30
2019-04-30T10:47:41.673Z,62.90
2019-04-30T10:50:11.086Z,62.40
2019-04-30T10:52:40.324Z,61.70
2019-04-30T10:55:10.191Z,60.30
2019-04-30T10:57:39.782Z,60.30
2019-04-30T11:00:13.404Z,60.70
2019-04-30T11:02:42.782Z,60.40
2019-04-30T11:05:12.926Z,60.90
2019-04-30T11:07:41.999Z,60.50
2019-04-30T11:10:11.915Z,60.80
2019-04-30T11:12:40.998Z,60.50
2019-04-30T11:15:10.132Z,60.70
2019-04-30T11:17:39.694Z,61.50
2019-04-30T11:20:10.312Z,60.80
2019-04-30T11:22:39.686Z,60.40
2019-04-30T11:25:10.069Z,59.10
2019-04-30T11:27:40.599Z,59.30
2019-04-30T11:30:20.376Z,59.30
2019-04-30T11:32:41.583Z,59.60
2019-04-30T11:35:10.779Z,60.70
2019-04-30T11:37:39.681Z,60.00
2019-04-30T11:40:09.919Z,60.40
2019-04-30T11:42:39.093Z,61.60
2019-04-30T11:45:09.637Z,62.20
2019-04-30T11:47:53.025Z,59.30
2019-04-30T11:50:14.147Z,60.60
2019-04-30T11:52:43.134Z,60.90
2019-04-30T11:55:12.333Z,60.50
2019-04-30T11:57:41.625Z,60.60
2019-04-30T12:00:14.497Z,61.50
2019-04-30T12:02:43.579Z,60.90
2019-04-30T12:05:15.196Z,59.80
2019-04-30T12:08:02.353Z,59.70
2019-04-30T12:10:45.429Z,59.80
2019-04-30T12:13:24.358Z,59.50
2019-04-30T12:15:54.039Z,59.70
2019-04-30T12:18:22.972Z,59.90
2019-04-30T12:20:52.121Z,60.40
2019-04-30T12:23:21.103Z,61.00
2019-04-30T12:25:50.095Z,58.90
2019-04-30T12:28:19.596Z,59.00
2019-04-30T12:30:49.053Z,59.30
2019-04-30T12:33:19.193Z,60.50
2019-04-30T12:35:49.159Z,60.00
2019-04-30T12:38:20.404Z,59.70
2019-04-30T12:40:49.701Z,59.40
2019-04-30T12:43:19.099Z,60.00
2019-04-30T12:46:01.913Z,59.70
2019-04-30T12:48:31.134Z,58.60
2019-04-30T12:51:11.363Z,58.00
2019-04-30T12:53:56.398Z,58.90
2019-04-30T12:56:31.678Z,57.70
2019-04-30T12:59:01.393Z,57.90
2019-04-30T13:01:33.948Z,58.00
2019-04-30T13:04:01.706Z,58.40
2019-04-30T13:06:31.001Z,58.90
2019-04-30T13:09:01.251Z,58.70
2019-04-30T13:11:31.700Z,59.10
2019-04-30T13:14:01.412Z,57.50
2019-04-30T13:16:30.939Z,58.00
2019-04-30T13:18:59.928Z,57.70
2019-04-30T13:21:28.973Z,57.00
2019-04-30T13:23:58.152Z,56.90
2019-04-30T13:26:28.560Z,56.50
2019-04-30T13:29:05.947Z,56.70
2019-04-30T13:31:35.541Z,55.70
2019-04-30T13:34:25.175Z,55.90
2019-04-30T13:36:54.335Z,53.90
2019-04-30T13:39:29.300Z,53.40
2019-04-30T13:42:14.846Z,54.10
2019-04-30T13:44:36.330Z,54.90
2019-04-30T13:47:05.307Z,55.20
2019-04-30T13:49:34.342Z,56.10
2019-04-30T13:52:03.386Z,55.90
2019-04-30T13:54:32.457Z,54.90
2019-04-30T13:57:01.448Z,55.30
2019-04-30T13:59:30.491Z,55.20
2019-04-30T14:01:59.519Z,55.00
2019-04-30T14:04:50.711Z,53.70
2019-04-30T14:07:44.560Z,53.90
2019-04-30T14:10:13.871Z,54.90
2019-04-30T14:12:48.469Z,54.60
2019-04-30T14:15:19.232Z,54.20
2019-04-30T14:17:50.794Z,53.20
2019-04-30T14:20:19.892Z,52.70
2019-04-30T14:22:49.436Z,52.00
2019-04-30T14:25:21.047Z,52.20
2019-04-30T14:27:54.509Z,51.90
2019-04-30T14:30:21.419Z,51.70
2019-04-30T14:32:50.790Z,52.60
2019-04-30T14:35:20.120Z,51.80
2019-04-30T14:37:49.759Z,52.50
2019-04-30T14:40:20.404Z,51.90
2019-04-30T14:43:00.490Z,51.40
2019-04-30T14:45:36.906Z,53.00
2019-04-30T14:48:16.567Z,53.60
2019-04-30T14:50:46.546Z,53.00
2019-04-30T14:53:34.683Z,54.20
2019-04-30T14:56:34.946Z,54.30
2019-04-30T14:59:26.006Z,54.60
2019-04-30T15:02:17.009Z,54.30
2019-04-30T15:04:46.117Z,53.40
2019-04-30T15:07:15.414Z,53.60
2019-04-30T15:09:44.502Z,53.30
2019-04-30T15:12:13.786Z,53.20
2019-04-30T15:14:42.865Z,54.10
2019-04-30T15:17:11.912Z,54.90
2019-04-30T15:19:41.325Z,55.50
2019-04-30T15:22:10.318Z,55.30
2019-04-30T15:24:39.574Z,54.80
2019-04-30T15:27:09.285Z,54.20
2019-04-30T15:29:39.310Z,54.30
2019-04-30T15:32:08.777Z,54.00
2019-04-30T15:34:40.890Z,54.10
2019-04-30T15:37:18.658Z,54.10
2019-04-30T15:39:41.234Z,53.90
2019-04-30T15:42:11.514Z,53.90
2019-04-30T15:44:43.231Z,54.20
2019-04-30T15:47:12.091Z,54.70
2019-04-30T15:49:41.097Z,54.30
2019-04-30T15:52:11.083Z,54.80
2019-04-30T15:54:40.403Z,55.40
2019-04-30T15:57:09.478Z,55.70
2019-04-30T15:59:42.373Z,56.90
2019-04-30T16:02:32.183Z,57.50
2019-04-30T16:05:15.026Z,58.30
2019-04-30T16:07:51.458Z,58.00
2019-04-30T16:10:54.591Z,57.70
2019-04-30T16:13:25.538Z,58.00
2019-04-30T16:15:54.557Z,57.90
2019-04-30T16:18:24.995Z,58.30
2019-04-30T16:20:54.056Z,59.20
2019-04-30T16:23:22.993Z,60.00
2019-04-30T16:25:51.943Z,59.00
2019-04-30T16:28:20.873Z,58.90
2019-04-30T16:30:49.782Z,58.90
2019-04-30T16:33:19.486Z,59.10
2019-04-30T16:35:50.813Z,59.00
2019-04-30T16:38:20.914Z,58.70
2019-04-30T16:40:50.066Z,58.90
2019-04-30T16:43:20.385Z,58.90
2019-04-30T16:45:49.642Z,59.30
2019-04-30T16:48:19.431Z,59.30
2019-04-30T16:50:51.111Z,59.50
2019-04-30T16:53:19.173Z,59.80
2019-04-30T16:55:50.409Z,60.40
2019-04-30T16:58:19.646Z,61.50
2019-04-30T17:00:49.434Z,62.80
2019-04-30T17:03:35.039Z,63.80
2019-04-30T17:06:10.715Z,64.40
2019-04-30T17:08:55.881Z,65.30
2019-04-30T17:11:42.556Z,65.90
2019-04-30T17:14:14.297Z,66.20
2019-04-30T17:16:43.819Z,66.50
2019-04-30T17:19:12.829Z,67.60
2019-04-30T17:21:41.693Z,67.10
2019-04-30T17:24:13.831Z,67.30
2019-04-30T17:26:41.990Z,68.30
2019-04-30T17:29:10.980Z,68.60
2019-04-30T17:31:39.992Z,69.50
2019-04-30T17:34:09.016Z,69.70
2019-04-30T17:36:39.642Z,70.40
2019-04-30T17:39:12.572Z,71.30
2019-04-30T17:41:41.507Z,71.80
2019-04-30T17:44:10.371Z,72.60
2019-04-30T17:46:39.318Z,73.90
2019-04-30T17:49:10.033Z,74.50
2019-04-30T17:51:38.989Z,75.00
2019-04-30T17:54:14.080Z,75.60
2019-04-30T17:56:44.682Z,76.10
2019-04-30T17:59:13.953Z,76.00
2019-04-30T18:01:49.595Z,76.60
2019-04-30T18:04:19.600Z,77.20
2019-04-30T18:06:50.642Z,77.50
2019-04-30T18:09:19.910Z,78.00
2019-04-30T18:11:49.562Z,78.70
2019-04-30T18:14:18.804Z,79.90
2019-04-30T18:16:48.744Z,80.70
2019-04-30T18:19:28.650Z,81.20
2019-04-30T18:22:05.026Z,81.90
2019-04-30T18:24:39.839Z,82.60
2019-04-30T18:27:14.376Z,83.50
2019-04-30T18:29:43.305Z,84.00
2019-04-30T18:32:12.434Z,84.50
2019-04-30T18:34:41.642Z,85.80
2019-04-30T18:37:10.681Z,86.20
2019-04-30T18:39:39.764Z,86.90
2019-04-30T18:42:10.816Z,87.40
2019-04-30T18:44:40.443Z,88.20
2019-04-30T18:47:13.083Z,88.20
2019-04-30T18:49:42.149Z,88.80
2019-04-30T18:52:11.616Z,89.30
2019-04-30T18:54:40.658Z,89.60
2019-04-30T18:57:10.253Z,90.10
2019-04-30T18:59:39.258Z,90.50
2019-04-30T19:02:10.765Z,90.90
2019-04-30T19:04:40.896Z,91.00
2019-04-30T19:07:32.421Z,91.60
2019-04-30T19:10:12.546Z,91.50
2019-04-30T19:12:51.487Z,91.90
2019-04-30T19:16:18.093Z,92.00
2019-04-30T19:18:44.515Z,92.20
2019-04-30T19:21:13.475Z,92.60
2019-04-30T19:23:42.476Z,93.00
2019-04-30T19:26:11.387Z,93.20
2019-04-30T19:28:40.391Z,93.40
2019-04-30T19:31:11.747Z,93.60
2019-04-30T19:33:40.135Z,93.80
2019-04-30T19:36:09.823Z,94.00
2019-04-30T19:38:38.834Z,94.10
2019-04-30T19:41:09.086Z,94.20
2019-04-30T19:43:39.081Z,94.30
2019-04-30T19:46:09.164Z,94.40
2019-04-30T19:48:38.193Z,94.50
2019-04-30T19:51:08.825Z,94.60
2019-04-30T19:53:39.565Z,94.70
2019-04-30T19:56:08.765Z,94.80
2019-04-30T19:58:55.435Z,94.80
2019-04-30T20:01:09.498Z,94.80
2019-04-30T20:03:40.565Z,95.20
2019-04-30T20:06:10.004Z,95.10
2019-04-30T20:08:39.023Z,95.30
2019-04-30T20:11:08.277Z,95.40
2019-04-30T20:13:37.498Z,95.60
2019-04-30T20:16:06.854Z,95.60
2019-04-30T20:18:35.894Z,95.90
2019-04-30T20:21:11.262Z,96.00
2019-04-30T20:23:47.589Z,96.10
2019-04-30T20:26:16.738Z,96.20
2019-04-30T20:28:45.691Z,96.40
2019-04-30T20:31:15.260Z,96.50
2019-04-30T20:33:45.139Z,96.70
2019-04-30T20:36:14.269Z,96.80
2019-04-30T20:39:17.607Z,96.90
2019-04-30T20:41:49.056Z,97.00
2019-04-30T20:44:18.997Z,97.20
2019-04-30T20:46:49.100Z,97.30
2019-04-30T20:49:19.224Z,97.40
2019-04-30T20:51:55.646Z,97.50
2019-04-30T20:54:19.787Z,97.70
2019-04-30T20:56:50.924Z,97.80
2019-04-30T20:59:19.341Z,98.00
2019-04-30T21:01:49.010Z,98.30
2019-04-30T21:04:20.635Z,98.30
2019-04-30T21:06:49.658Z,98.30
2019-04-30T21:09:18.763Z,98.40
2019-04-30T21:11:48.960Z,99.00
2019-04-30T21:14:19.245Z,99.10
2019-04-30T21:16:48.499Z,99.00
2019-04-30T21:19:17.656Z,99.40
2019-04-30T21:21:49.220Z,99.10
2019-04-30T21:24:18.145Z,99.20
2019-04-30T21:26:47.501Z,99.10
2019-04-30T21:29:16.630Z,99.10
2019-04-30T21:31:53.231Z,99.20
2019-04-30T21:34:33.196Z,99.60
2019-04-30T21:37:02.167Z,99.80
2019-04-30T21:39:31.036Z,99.80
2019-04-30T21:42:00.646Z,99.80
2019-04-30T21:44:29.558Z,99.90
2019-04-30T21:46:58.714Z,99.90
2019-04-30T21:49:27.753Z,99.90
2019-04-30T21:51:56.777Z,99.90
2019-04-30T21:54:25.948Z,99.90
2019-04-30T21:56:55.279Z,99.90
2019-04-30T21:59:24.868Z,99.90
2019-04-30T22:01:54.333Z,99.90
2019-04-30T22:04:23.264Z,99.90
2019-04-30T22:06:52.450Z,99.90
2019-04-30T22:09:21.860Z,99.90
2019-04-30T22:11:51.945Z,99.90
2019-04-30T22:14:21.024Z,99.90
2019-04-30T22:16:50.022Z,99.90
2019-04-30T22:19:18.960Z,99.90
2019-04-30T22:21:49.591Z,99.90
2019-04-30T22:24:18.851Z,99.90
2019-04-30T22:26:47.917Z,99.90
2019-04-30T22:29:19.029Z,99.90
2019-04-30T22:31:49.467Z,99.90
2019-04-30T22:34:19.063Z,99.90
2019-04-30T22:36:49.060Z,99.90
2019-04-30T22:39:32.966Z,99.90
2019-04-30T22:42:39.534Z,99.90
2019-04-30T22:45:23.403Z,99.90
2019-04-30T22:47:52.825Z,99.90
2019-04-30T22:50:21.810Z,99.90
2019-04-30T22:52:50.649Z,99.90
2019-04-30T22:55:19.591Z,99.90
2019-04-30T22:57:48.543Z,99.90
2019-04-30T23:00:24.756Z,99.90
2019-04-30T23:03:03.451Z,99.90
2019-04-30T23:05:32.449Z,99.90
2019-04-30T23:08:01.515Z,99.90
2019-04-30T23:10:30.461Z,99.90
2019-04-30T23:12:59.771Z,99.90
2019-04-30T23:15:29.125Z,99.90
2019-04-30T23:17:58.052Z,99.90
2019-04-30T23:20:27.407Z,99.90
2019-04-30T23:22:56.462Z,99.90
2019-04-30T23:25:25.398Z,99.90
2019-04-30T23:27:54.353Z,99.90
2019-04-30T23:30:23.241Z,99.90
2019-04-30T23:32:52.638Z,99.90
2019-04-30T23:35:21.603Z,99.90
2019-04-30T23:37:50.567Z,99.90
2019-04-30T23:40:28.371Z,99.90
2019-04-30T23:42:57.422Z,99.90
2019-04-30T23:45:26.597Z,99.90
2019-04-30T23:47:55.618Z,99.90
2019-04-30T23:50:24.607Z,99.90
2019-04-30T23:52:53.673Z,99.90
2019-04-30T23:55:23.112Z,99.90
2019-04-30T23:57:52.051Z,99.90
